地図

経路データ

SID SEASON NUMBER BASIN SUBBASIN NAME ISO_TIME NATURE LAT LON WMO_WIND WMO_PRES WMO_AGENCY TRACK_TYPE DIST2LAND LANDFALL IFLAG USA_AGENCY USA_ATCF_ID USA_LAT USA_LON USA_RECORD USA_STATUS USA_WIND USA_PRES USA_SSHS USA_R34_NE USA_R34_SE USA_R34_SW USA_R34_NW USA_R50_NE USA_R50_SE USA_R50_SW USA_R50_NW USA_R64_NE USA_R64_SE USA_R64_SW USA_R64_NW USA_POCI USA_ROCI USA_RMW USA_EYE TOKYO_LAT TOKYO_LON TOKYO_GRADE TOKYO_WIND TOKYO_PRES TOKYO_R50_DIR TOKYO_R50_LONG TOKYO_R50_SHORT TOKYO_R30_DIR TOKYO_R30_LONG TOKYO_R30_SHORT TOKYO_LAND CMA_LAT CMA_LON CMA_CAT CMA_WIND CMA_PRES HKO_LAT HKO_LON HKO_CAT HKO_WIND HKO_PRES NEWDELHI_LAT NEWDELHI_LON NEWDELHI_GRADE NEWDELHI_WIND NEWDELHI_PRES NEWDELHI_CI NEWDELHI_DP NEWDELHI_POCI REUNION_LAT REUNION_LON REUNION_TYPE REUNION_WIND REUNION_PRES REUNION_TNUM REUNION_CI REUNION_RMW REUNION_R34_NE REUNION_R34_SE REUNION_R34_SW REUNION_R34_NW REUNION_R50_NE REUNION_R50_SE REUNION_R50_SW REUNION_R50_NW REUNION_R64_NE REUNION_R64_SE REUNION_R64_SW REUNION_R64_NW BOM_LAT BOM_LON BOM_TYPE BOM_WIND BOM_PRES BOM_TNUM BOM_CI BOM_RMW BOM_R34_NE BOM_R34_SE BOM_R34_SW BOM_R34_NW BOM_R50_NE BOM_R50_SE BOM_R50_SW BOM_R50_NW BOM_R64_NE BOM_R64_SE BOM_R64_SW BOM_R64_NW BOM_ROCI BOM_POCI BOM_EYE BOM_POS_METHOD BOM_PRES_METHOD NADI_LAT NADI_LON NADI_CAT NADI_WIND NADI_PRES WELLINGTON_LAT WELLINGTON_LON WELLINGTON_WIND WELLINGTON_PRES DS824_LAT DS824_LON DS824_STAGE DS824_WIND DS824_PRES TD9636_LAT TD9636_LON TD9636_STAGE TD9636_WIND TD9636_PRES TD9635_LAT TD9635_LON TD9635_WIND TD9635_PRES TD9635_ROCI NEUMANN_LAT NEUMANN_LON NEUMANN_CLASS NEUMANN_WIND NEUMANN_PRES MLC_LAT MLC_LON MLC_CLASS MLC_WIND MLC_PRES USA_GUST BOM_GUST BOM_GUST_PER REUNION_GUST REUNION_GUST_PER USA_SEAHGT USA_SEARAD_NE USA_SEARAD_SE USA_SEARAD_SW USA_SEARAD_NW STORM_SPEED STORM_DIR
1994157N17074 1994 35 NI AS NOT_NAMED 1994-06-05 12:00:00 NR 16.6000 73.7000 15 994 newdelhi main 0 0 O___O_________ jtwc_io IO031994 17.7000 74.4000 20 -1 15.5000 73.0000 15 994 1.00000 2 996 9 289
1994157N17074 1994 35 NI AS NOT_NAMED 1994-06-05 15:00:00 NR 16.7422 73.2567 main 0 0 P___P_________ IO031994 17.6831 73.7799 20 -1 15.8013 72.7335 20 993 3 996 9 287
1994157N17074 1994 35 NI AS NOT_NAMED 1994-06-05 18:00:00 NR 16.8500 72.8500 25 992 newdelhi main 42 53 O___O_________ jtwc_io IO031994 17.7000 73.2000 20 -1 16.0000 72.5000 25 992 1.50000 4 996 8 285
1994157N17074 1994 35 NI AS NOT_NAMED 1994-06-05 21:00:00 NR 16.9367 72.4864 main 85 85 P___P_________ IO031994 17.7770 72.6724 22 -1 16.0964 72.3003 25 992 4 996 8 295
1994157N17074 1994 35 NI AS NOT_NAMED 1994-06-06 00:00:00 NR 17.2000 72.0500 25 992 newdelhi main 115 115 O___O_________ jtwc_io IO031994 17.9000 72.1000 25 -1 16.5000 72.0000 25 992 1.50000 4 996 13 310
1994157N17074 1994 35 NI AS NOT_NAMED 1994-06-06 03:00:00 NR 17.7712 71.4475 30 991 newdelhi main 164 164 P___O_________ IO031994 18.0423 71.3950 25 -1 17.5000 71.5000 30 991 2.00000 5 996 12 304
1994157N17074 1994 35 NI AS NOT_NAMED 1994-06-06 06:00:00 NR 17.8500 71.0500 30 990 newdelhi main 193 193 O___O_________ jtwc_io IO031994 18.2000 70.6000 25 -1 17.5000 71.5000 30 990 2.00000 6 996 10 284
1994157N17074 1994 35 NI AS NOT_NAMED 1994-06-06 09:00:00 NR 18.0112 70.4318 main 265 265 P___P_________ IO031994 18.3578 69.7276 27 -1 17.6647 71.1360 32 989 7 996 13 287
1994157N17074 1994 35 NI AS NOT_NAMED 1994-06-06 12:00:00 NR 18.2500 69.7000 35 988 newdelhi main 292 291 O___O_________ jtwc_io IO031994 18.5000 68.9000 30 -1 18.0000 70.5000 35 988 2.50000 8 996 14 292
1994157N17074 1994 35 NI AS NOT_NAMED 1994-06-06 15:00:00 NR 18.5571 69.0365 main 301 301 P___P_________ IO031994 18.6143 68.2773 30 -1 18.5000 69.7957 35 988 8 996 14 295
1994157N17074 1994 35 NI AS NOT_NAMED 1994-06-06 18:00:00 NR 18.8500 68.3500 35 988 newdelhi main 309 316 O___O_________ jtwc_io IO031994 18.7000 67.7000 30 -1 19.0000 69.0000 35 988 2.50000 8 996 14 290
1994157N17074 1994 35 NI AS NOT_NAMED 1994-06-06 21:00:00 NR 19.0499 67.6173 main 358 351 P___P_________ IO031994 18.7650 67.0075 32 -1 19.3348 68.2271 35 988 8 996 15 282
1994157N17074 1994 35 NI AS NOT_NAMED 1994-06-07 00:00:00 NR 19.1500 66.8500 35 988 newdelhi main 396 396 O___O_________ jtwc_io IO031994 18.8000 66.3000 35 0 19.5000 67.4000 35 988 2.50000 8 996 15 274
1994157N17074 1994 35 NI AS NOT_NAMED 1994-06-07 03:00:00 NR 19.1537 66.0637 35 988 newdelhi main 452 452 P___O_________ IO031994 18.8073 65.6274 37 0 19.5000 66.5000 35 988 2.50000 8 996 17 270
1994157N17074 1994 35 NI AS NOT_NAMED 1994-06-07 06:00:00 NR 19.1500 65.0000 45 986 newdelhi main 533 533 O___O_________ jtwc_io IO031994 18.8000 65.0000 40 0 19.5000 65.0000 45 986 3.00000 10 996 16 270
1994157N17074 1994 35 NI AS NOT_NAMED 1994-06-07 09:00:00 NR 19.1452 64.3615 main 589 553 P___P_________ IO031994 18.7923 64.4274 40 0 19.4981 64.2955 50 983 13 996 10 270
1994157N17074 1994 35 NI AS NOT_NAMED 1994-06-07 12:00:00 NR 19.1500 63.9500 55 980 newdelhi main 548 502 O___O_________ jtwc_io IO031994 18.8000 63.9000 40 0 19.5000 64.0000 55 980 3.50000 16 996 9 271
1994157N17074 1994 35 NI AS NOT_NAMED 1994-06-07 15:00:00 NR 19.1674 63.4350 main 493 457 P___P_________ IO031994 18.8350 63.3700 42 0 19.4999 63.5000 50 982 14 996 9 273
1994157N17074 1994 35 NI AS NOT_NAMED 1994-06-07 18:00:00 NR 19.2000 62.9500 45 984 newdelhi main 457 414 O___O_________ jtwc_io IO031994 18.9000 62.9000 45 0 19.5000 63.0000 45 984 3.00000 12 996 9 275
1994157N17074 1994 35 NI AS NOT_NAMED 1994-06-07 21:00:00 NR 19.2461 62.5100 main 414 374 P___P_________ IO031994 18.9923 62.5200 45 0 19.4999 62.5000 40 986 10 996 8 277
1994157N17074 1994 35 NI AS NOT_NAMED 1994-06-08 00:00:00 NR 19.3000 62.1000 35 988 newdelhi main 374 343 O___O_________ jtwc_io IO031994 19.1000 62.2000 45 0 19.5000 62.0000 35 988 2.50000 8 996 8 277
1994157N17074 1994 35 NI AS NOT_NAMED 1994-06-08 03:00:00 NR 19.3462 61.6999 35 988 newdelhi main 343 327 P___O_________ IO031994 19.1924 61.8999 42 0 19.5000 61.5000 35 988 2.50000 8 996 5 281
1994157N17074 1994 35 NI AS NOT_NAMED 1994-06-08 06:00:00 NR 19.4000 61.5500 35 988 newdelhi main 327 297 O___O_________ jtwc_io IO031994 19.3000 61.6000 40 0 19.5000 61.5000 35 988 2.50000 8 996 4 288
1994157N17074 1994 35 NI AS NOT_NAMED 1994-06-08 09:00:00 NR 19.4750 61.2793 main 297 275 P___P_________ IO031994 19.4500 61.2575 40 0 19.5001 61.3011 32 989 7 996 6 285
1994157N17074 1994 35 NI AS NOT_NAMED 1994-06-08 12:00:00 NR 19.5500 60.9500 30 990 newdelhi main 268 242 O___O_________ jtwc_io IO031994 19.6000 60.9000 40 0 19.5000 61.0000 30 990 2.00000 6 996 6 282
1994157N17074 1994 35 NI AS NOT_NAMED 1994-06-08 15:00:00 NR 19.6037 60.6500 main 233 215 P___P_________ IO031994 19.7074 60.5499 37 0 19.5000 60.7500 30 990 6 996 6 280
1994157N17074 1994 35 NI AS NOT_NAMED 1994-06-08 18:00:00 NR 19.6500 60.3500 30 990 newdelhi main 209 183 O___O_________ jtwc_io IO031994 19.8000 60.2000 35 0 19.5000 60.5000 30 990 2.00000 6 996 6 280
1994157N17074 1994 35 NI AS NOT_NAMED 1994-06-08 21:00:00 NR 19.6999 60.0718 main 183 156 P___P_________ IO031994 19.9000 59.8425 32 -1 19.4998 60.3011 27 990 5 995 6 280
1994157N17074 1994 35 NI AS NOT_NAMED 1994-06-09 00:00:00 NR 19.7500 59.7500 25 990 newdelhi main 151 115 O___O_________ jtwc_io IO031994 20.0000 59.5000 30 -1 19.5000 60.0000 25 990 1.50000 4 994 7 278
1994157N17074 1994 35 NI AS NOT_NAMED 1994-06-09 03:00:00 NR 19.7999 59.3500 25 990 newdelhi main 107 62 P___O_________ IO031994 20.0999 59.1999 30 -1 19.5000 59.5000 25 990 1.50000 4 994 8 296
1994157N17074 1994 35 NI AS NOT_NAMED 1994-06-09 06:00:00 NR 20.1143 58.9429 25 990 newdelhi main 53 15 O___O_________ jtwc_io IO031994 20.2000 58.9000 30 -1 20.0000 59.0000 25 990 1.50000 4 994 8 303
1994157N17074 1994 35 NI AS NOT_NAMED 1994-06-09 09:00:00 NR 20.2543 58.5997 main 15 0 P___P_________ IO031994 20.3000 58.5575 27 -1 20.1629 58.6841 20 991 3 994 7 287
1994157N17074 1994 35 NI AS NOT_NAMED 1994-06-09 12:00:00 NR 20.3000 58.2750 15 992 newdelhi main 10 0 O___O_________ jtwc_io IO031994 20.4000 58.2000 25 -1 20.0000 58.5000 15 992 1.00000 2 994 7 289
1994157N17074 1994 35 NI AS NOT_NAMED 1994-06-09 15:00:00 NR 20.5001 57.8476 main 0 0 P_____________ IO031994 20.5001 57.8476 25 -1 8 292
1994157N17074 1994 35 NI AS NOT_NAMED 1994-06-09 18:00:00 NR 20.6000 57.5000 main 0 O_____________ jtwc_io IO031994 20.6000 57.5000 25 -1 7 287

IBTrACS Databaseについて

本データベースは、米国NOAAが公開する1842年以降の世界の熱帯低気圧のベストトラックデータアーカイブInternational Best Track Archive for Climate Stewardship (IBTrACS)を、ウェブで閲覧しやすい形式に変換したものです。

最終更新日:2021-12-01